createdAt,value
2023-04-21T00:01:43.894Z,8.30
2023-04-21T00:04:13.517Z,8.20
2023-04-21T00:06:41.689Z,8.20
2023-04-21T00:09:09.736Z,8.10
2023-04-21T00:11:36.870Z,8.00
2023-04-21T00:14:03.842Z,7.90
2023-04-21T00:16:30.903Z,7.90
2023-04-21T00:18:58.371Z,7.90
2023-04-21T00:21:25.349Z,7.90
2023-04-21T00:23:52.358Z,7.80
2023-04-21T00:26:20.876Z,7.80
2023-04-21T00:28:47.783Z,7.80
2023-04-21T00:31:14.756Z,7.70
2023-04-21T00:33:41.667Z,7.70
2023-04-21T00:36:08.686Z,7.70
2023-04-21T00:38:35.649Z,7.70
2023-04-21T00:41:02.712Z,7.70
2023-04-21T00:43:29.724Z,7.80
2023-04-21T00:45:56.772Z,7.90
2023-04-21T00:48:23.660Z,8.00
2023-04-21T00:50:50.740Z,8.00
2023-04-21T00:53:18.270Z,8.00
2023-04-21T00:55:45.846Z,8.00
2023-04-21T00:58:12.798Z,8.00
2023-04-21T01:00:39.863Z,8.10
2023-04-21T01:03:08.155Z,8.10
2023-04-21T01:05:36.080Z,8.00
2023-04-21T01:08:02.963Z,8.00
2023-04-21T01:10:30.099Z,7.90
2023-04-21T01:12:57.009Z,7.90
2023-04-21T01:15:24.008Z,7.90
2023-04-21T01:17:54.141Z,7.80
2023-04-21T01:20:21.238Z,7.70
2023-04-21T01:22:49.964Z,7.70
2023-04-21T01:25:18.521Z,7.70
2023-04-21T01:27:45.704Z,7.60
2023-04-21T01:30:12.802Z,7.50
2023-04-21T01:32:39.696Z,7.50
2023-04-21T01:35:07.137Z,7.60
2023-04-21T01:37:35.054Z,7.50
2023-04-21T01:40:06.129Z,7.50
2023-04-21T01:42:35.008Z,7.40
2023-04-21T01:45:02.118Z,7.40
2023-04-21T01:47:29.253Z,7.30
2023-04-21T01:49:56.218Z,7.30
2023-04-21T01:52:23.194Z,7.30
2023-04-21T01:54:50.457Z,7.20
2023-04-21T01:57:17.989Z,7.20
2023-04-21T01:59:45.205Z,7.10
2023-04-21T02:02:12.195Z,7.10
2023-04-21T02:04:39.478Z,7.00
2023-04-21T02:07:06.727Z,6.90
2023-04-21T02:09:33.743Z,6.90
2023-04-21T02:12:01.944Z,6.80
2023-04-21T02:14:28.917Z,6.90
2023-04-21T02:16:56.309Z,6.80
2023-04-21T02:19:23.803Z,6.80
2023-04-21T02:21:50.791Z,6.80
2023-04-21T02:24:17.811Z,6.80
2023-04-21T02:26:44.759Z,6.70
2023-04-21T02:29:11.634Z,6.70
2023-04-21T02:31:53.828Z,6.60
2023-04-21T02:34:24.632Z,6.70
2023-04-21T02:36:51.590Z,6.60
2023-04-21T02:39:18.764Z,6.60
2023-04-21T02:41:45.842Z,6.50
2023-04-21T02:44:12.719Z,6.50
2023-04-21T02:46:43.491Z,6.50
2023-04-21T02:49:11.103Z,6.50
2023-04-21T02:51:38.119Z,6.40
2023-04-21T02:54:05.240Z,6.40
2023-04-21T02:56:34.666Z,6.40
2023-04-21T02:59:01.674Z,6.30
2023-04-21T03:01:28.669Z,6.30
2023-04-21T03:03:55.770Z,6.20
2023-04-21T03:06:22.719Z,6.10
2023-04-21T03:08:49.632Z,6.10
2023-04-21T03:11:16.634Z,6.10
2023-04-21T03:13:43.600Z,6.10
2023-04-21T03:16:10.583Z,6.10
2023-04-21T03:18:37.752Z,6.10
2023-04-21T03:21:04.737Z,6.00
2023-04-21T03:23:31.679Z,6.00
2023-04-21T03:25:58.618Z,5.90
2023-04-21T03:28:25.564Z,5.90
2023-04-21T03:30:52.543Z,5.90
2023-04-21T03:33:19.449Z,5.90
2023-04-21T03:35:46.362Z,5.80
2023-04-21T03:38:13.363Z,5.80
2023-04-21T03:40:40.266Z,5.80
2023-04-21T03:43:07.187Z,5.80
2023-04-21T03:45:36.201Z,5.70
2023-04-21T03:48:03.872Z,5.70
2023-04-21T03:50:31.084Z,5.70
2023-04-21T03:52:58.050Z,5.70
2023-04-21T03:55:25.007Z,5.70
2023-04-21T03:57:51.919Z,5.70
2023-04-21T04:00:18.920Z,5.60
2023-04-21T04:02:45.993Z,5.60
2023-04-21T04:05:13.236Z,5.60
2023-04-21T04:07:40.331Z,5.70
2023-04-21T04:10:07.342Z,5.70
2023-04-21T04:12:34.219Z,5.70
2023-04-21T04:15:01.548Z,5.70
2023-04-21T04:17:28.574Z,5.80
2023-04-21T04:19:55.542Z,5.80
2023-04-21T04:22:22.460Z,5.80
2023-04-21T04:24:49.332Z,5.80
2023-04-21T04:27:16.719Z,5.80
2023-04-21T04:29:44.027Z,5.80
2023-04-21T04:32:11.229Z,5.90
2023-04-21T04:34:38.721Z,6.00
2023-04-21T04:37:06.681Z,6.10
2023-04-21T04:39:33.827Z,6.20
2023-04-21T04:42:01.527Z,6.20
2023-04-21T04:44:28.520Z,6.30
2023-04-21T04:46:56.614Z,6.40
2023-04-21T04:49:24.257Z,6.50
2023-04-21T04:51:51.563Z,6.60
2023-04-21T04:54:18.629Z,6.60
2023-04-21T04:56:46.161Z,6.80
2023-04-21T04:59:13.172Z,6.80
2023-04-21T05:01:42.078Z,6.90
2023-04-21T05:04:09.326Z,7.00
2023-04-21T05:06:36.390Z,7.10
2023-04-21T05:09:04.986Z,7.10
2023-04-21T05:11:32.152Z,7.20
2023-04-21T05:13:59.275Z,7.30
2023-04-21T05:16:26.308Z,7.40
2023-04-21T05:18:55.942Z,7.40
2023-04-21T05:21:31.706Z,7.50
2023-04-21T05:23:59.439Z,7.50
2023-04-21T05:26:27.801Z,7.60
2023-04-21T05:28:58.800Z,7.70
2023-04-21T05:31:25.937Z,7.80
2023-04-21T05:33:53.271Z,7.80
2023-04-21T05:36:20.555Z,7.90
2023-04-21T05:38:47.674Z,8.00
2023-04-21T05:41:14.647Z,8.00
2023-04-21T05:43:41.611Z,8.10
2023-04-21T05:46:11.687Z,8.20
2023-04-21T05:48:38.719Z,8.20
2023-04-21T05:51:12.862Z,8.30
2023-04-21T05:53:42.563Z,8.40
2023-04-21T05:56:10.544Z,8.40
2023-04-21T05:58:38.250Z,8.50
2023-04-21T06:01:08.830Z,8.60
2023-04-21T06:03:36.133Z,8.70
2023-04-21T06:06:04.757Z,8.80
2023-04-21T06:08:32.090Z,8.80
2023-04-21T06:10:59.154Z,8.90
2023-04-21T06:13:27.558Z,9.00
2023-04-21T06:15:55.479Z,9.10
2023-04-21T06:18:22.675Z,9.20
2023-04-21T06:20:53.482Z,9.50
2023-04-21T06:23:21.257Z,9.60
2023-04-21T06:25:59.264Z,9.70
2023-04-21T06:28:26.270Z,9.70
2023-04-21T06:30:53.339Z,9.80
2023-04-21T06:33:20.309Z,9.80
2023-04-21T06:35:47.218Z,9.90
2023-04-21T06:38:14.108Z,10.00
2023-04-21T06:40:41.331Z,10.10
2023-04-21T06:43:08.929Z,10.20
2023-04-21T06:45:35.960Z,10.30
2023-04-21T06:48:03.053Z,10.50
2023-04-21T06:50:30.031Z,10.70
2023-04-21T06:52:57.014Z,10.80
2023-04-21T06:55:24.381Z,11.10
2023-04-21T06:57:51.320Z,11.30
2023-04-21T07:00:18.403Z,11.50
2023-04-21T07:02:45.407Z,11.80
2023-04-21T07:05:12.584Z,12.10
2023-04-21T07:07:39.502Z,12.30
2023-04-21T07:10:07.237Z,12.40
2023-04-21T07:12:34.223Z,12.90
2023-04-21T07:15:01.209Z,13.00
2023-04-21T07:17:28.166Z,13.10
2023-04-21T07:19:55.095Z,13.30
2023-04-21T07:22:22.078Z,13.30
2023-04-21T07:24:49.598Z,13.30
2023-04-21T07:27:19.102Z,13.30
2023-04-21T07:29:46.064Z,13.30
2023-04-21T07:32:13.004Z,13.30
2023-04-21T07:34:40.282Z,13.30
2023-04-21T07:37:07.235Z,13.40
2023-04-21T07:39:34.186Z,13.50
2023-04-21T07:42:01.158Z,13.40
2023-04-21T07:44:29.482Z,13.40
2023-04-21T07:46:56.527Z,13.60
2023-04-21T07:49:23.809Z,13.80
2023-04-21T07:51:51.004Z,14.00
2023-04-21T07:54:18.036Z,14.20
2023-04-21T07:56:44.954Z,14.40
2023-04-21T07:59:11.940Z,14.70
2023-04-21T08:01:39.090Z,14.90
2023-04-21T08:04:06.756Z,15.10
2023-04-21T08:06:35.323Z,15.20
2023-04-21T08:09:02.251Z,15.40
2023-04-21T08:11:29.216Z,15.70
2023-04-21T08:13:57.638Z,15.80
2023-04-21T08:16:24.730Z,15.90
2023-04-21T08:18:51.705Z,16.00
2023-04-21T08:21:18.815Z,16.10
2023-04-21T08:23:45.725Z,16.20
2023-04-21T08:26:13.313Z,16.30
2023-04-21T08:28:40.443Z,16.20
2023-04-21T08:31:07.546Z,16.30
2023-04-21T08:33:34.846Z,16.30
2023-04-21T08:36:09.826Z,16.50
2023-04-21T08:38:45.105Z,16.60
2023-04-21T08:41:13.417Z,16.80
2023-04-21T08:43:40.444Z,17.00
2023-04-21T08:46:09.156Z,17.30
2023-04-21T08:48:38.034Z,17.40
2023-04-21T08:51:09.808Z,17.70
2023-04-21T08:53:37.484Z,17.90
2023-04-21T08:56:11.249Z,18.20
2023-04-21T08:58:38.902Z,18.50
2023-04-21T09:01:06.222Z,18.80
2023-04-21T09:03:33.541Z,19.10
2023-04-21T09:06:06.195Z,19.40
2023-04-21T09:08:35.147Z,19.40
2023-04-21T09:11:02.113Z,19.70
2023-04-21T09:13:34.495Z,20.00
2023-04-21T09:16:14.925Z,20.10
2023-04-21T09:18:44.365Z,20.00
2023-04-21T09:21:16.158Z,20.20
2023-04-21T09:23:50.120Z,20.30
2023-04-21T09:26:18.214Z,20.30
2023-04-21T09:28:47.011Z,20.30
2023-04-21T09:31:22.215Z,20.40
2023-04-21T09:33:57.934Z,20.60
2023-04-21T09:36:28.831Z,20.70
2023-04-21T09:41:33.027Z,20.80
2023-04-21T09:44:04.690Z,20.80
2023-04-21T09:46:36.865Z,21.00
2023-04-21T09:49:05.471Z,21.10
2023-04-21T09:52:00.135Z,21.30
2023-04-21T09:54:29.530Z,21.60
2023-04-21T09:57:03.803Z,21.90
2023-04-21T09:59:37.035Z,22.00
2023-04-21T10:02:08.525Z,22.00
2023-04-21T10:04:38.024Z,21.50
2023-04-21T10:07:06.281Z,21.10
2023-04-21T10:09:56.582Z,20.90
2023-04-21T10:12:25.150Z,21.10
2023-04-21T10:15:06.757Z,21.30
2023-04-21T10:17:38.430Z,21.20
2023-04-21T10:20:09.743Z,21.10
2023-04-21T10:22:38.679Z,21.00
2023-04-21T10:25:10.105Z,21.00
2023-04-21T10:27:40.708Z,21.00
2023-04-21T10:30:21.126Z,20.80
2023-04-21T10:32:48.955Z,20.90
2023-04-21T10:35:22.800Z,20.80
2023-04-21T10:37:54.049Z,20.70
2023-04-21T10:40:44.280Z,20.70
2023-04-21T10:43:49.603Z,20.80
2023-04-21T10:46:37.459Z,21.10
2023-04-21T10:49:09.532Z,21.10
2023-04-21T10:52:07.334Z,20.80
2023-04-21T10:54:46.447Z,20.60
2023-04-21T10:57:18.379Z,20.40
2023-04-21T10:59:46.868Z,20.20
2023-04-21T11:02:15.841Z,20.00
2023-04-21T11:04:48.144Z,19.80
2023-04-21T11:07:23.518Z,19.90
2023-04-21T11:10:04.062Z,20.10
2023-04-21T11:12:35.460Z,20.00
2023-04-21T11:15:10.067Z,19.90
2023-04-21T11:17:39.815Z,19.80
2023-04-21T11:20:07.908Z,19.80
2023-04-21T11:22:37.764Z,19.90
2023-04-21T11:25:05.208Z,19.90
2023-04-21T11:27:32.115Z,19.80
2023-04-21T11:29:59.165Z,19.70
2023-04-21T11:32:26.184Z,19.80
2023-04-21T11:34:54.383Z,19.80
2023-04-21T11:37:25.959Z,19.70
2023-04-21T11:40:00.560Z,19.40
2023-04-21T11:42:28.319Z,19.20
2023-04-21T11:44:59.200Z,19.00
2023-04-21T11:47:28.458Z,19.20
2023-04-21T11:49:58.180Z,19.10
2023-04-21T11:52:32.908Z,18.90
2023-04-21T11:55:15.362Z,18.50
2023-04-21T11:57:43.097Z,18.40
2023-04-21T12:00:13.372Z,18.30
2023-04-21T12:02:40.842Z,18.30
2023-04-21T12:05:09.751Z,18.00
2023-04-21T12:07:39.094Z,18.00
2023-04-21T12:10:13.259Z,17.80
2023-04-21T12:12:41.856Z,17.70
2023-04-21T12:15:11.072Z,17.80
2023-04-21T12:17:45.590Z,18.20
2023-04-21T12:20:15.397Z,18.70
2023-04-21T12:22:42.417Z,18.90
2023-04-21T12:25:09.560Z,18.90
2023-04-21T12:27:36.691Z,19.10
2023-04-21T12:30:04.258Z,19.10
2023-04-21T12:32:31.417Z,19.30
2023-04-21T12:34:58.470Z,19.40
2023-04-21T12:37:25.989Z,19.40
2023-04-21T12:39:52.913Z,19.60
2023-04-21T12:42:19.815Z,19.80
2023-04-21T12:44:46.923Z,19.70
2023-04-21T12:47:13.939Z,19.70
2023-04-21T12:49:41.535Z,19.40
2023-04-21T12:52:08.484Z,19.10
2023-04-21T12:54:35.545Z,19.00
2023-04-21T12:57:03.027Z,19.30
2023-04-21T12:59:30.130Z,19.60
2023-04-21T13:01:57.273Z,19.90
2023-04-21T13:04:24.471Z,19.90
2023-04-21T13:06:52.373Z,19.70
2023-04-21T13:09:19.364Z,19.80
2023-04-21T13:11:46.347Z,19.70
2023-04-21T13:14:13.702Z,19.30
2023-04-21T13:16:41.219Z,19.40
2023-04-21T13:19:08.213Z,19.30
2023-04-21T13:21:35.220Z,19.20
2023-04-21T13:24:02.922Z,19.20
2023-04-21T13:26:33.793Z,19.30
2023-04-21T13:29:01.585Z,19.00
2023-04-21T13:31:28.863Z,19.20
2023-04-21T13:33:56.815Z,19.30
2023-04-21T13:36:23.811Z,19.50
2023-04-21T13:38:53.865Z,19.40
2023-04-21T13:41:20.764Z,19.30
2023-04-21T13:43:47.807Z,19.30
2023-04-21T13:46:14.914Z,19.20
2023-04-21T13:48:41.925Z,19.00
2023-04-21T13:51:08.824Z,18.80
2023-04-21T13:53:36.222Z,18.90
2023-04-21T13:56:03.205Z,18.70
2023-04-21T13:58:30.880Z,18.70
2023-04-21T14:00:57.801Z,18.80
2023-04-21T14:03:25.013Z,18.90
2023-04-21T14:05:52.211Z,18.70
2023-04-21T14:08:19.298Z,18.60
2023-04-21T14:10:46.238Z,18.70
2023-04-21T14:13:26.843Z,18.60
2023-04-21T14:16:00.301Z,18.60
2023-04-21T14:18:27.425Z,18.60
2023-04-21T14:20:54.384Z,18.60
2023-04-21T14:23:21.348Z,18.50
2023-04-21T14:25:48.269Z,18.50
2023-04-21T14:28:15.357Z,18.50
2023-04-21T14:30:43.170Z,18.40
2023-04-21T14:33:10.432Z,18.50
2023-04-21T14:35:37.921Z,18.40
2023-04-21T14:38:04.931Z,18.40
2023-04-21T14:40:33.030Z,18.50
2023-04-21T14:43:00.020Z,18.40
2023-04-21T14:45:27.067Z,18.50
2023-04-21T14:47:54.087Z,18.40
2023-04-21T14:50:21.692Z,18.30
2023-04-21T14:52:49.725Z,18.20
2023-04-21T14:55:17.368Z,18.20
2023-04-21T14:57:44.386Z,17.90
2023-04-21T15:00:12.225Z,17.80
2023-04-21T15:02:41.994Z,17.60
2023-04-21T15:05:09.519Z,17.50
2023-04-21T15:07:36.518Z,17.50
2023-04-21T15:10:03.652Z,17.40
2023-04-21T15:12:30.821Z,17.40
2023-04-21T15:14:57.720Z,17.30
2023-04-21T15:17:24.713Z,17.20
2023-04-21T15:19:51.800Z,17.10
2023-04-21T15:22:19.160Z,17.10
2023-04-21T15:24:46.498Z,17.20
2023-04-21T15:27:13.403Z,17.20
2023-04-21T15:29:40.731Z,17.10
2023-04-21T15:32:07.914Z,17.00
2023-04-21T15:34:34.971Z,16.90
2023-04-21T15:37:02.101Z,16.70
2023-04-21T15:39:28.980Z,16.70
2023-04-21T15:41:56.638Z,16.60
2023-04-21T15:44:23.587Z,16.40
2023-04-21T15:46:51.071Z,16.30
2023-04-21T15:49:18.068Z,16.20
2023-04-21T15:51:45.070Z,16.00
2023-04-21T15:54:12.068Z,15.80
2023-04-21T15:56:39.104Z,15.70
2023-04-21T15:59:06.644Z,15.60
2023-04-21T16:01:34.059Z,15.50
2023-04-21T16:04:01.177Z,15.40
2023-04-21T16:06:30.894Z,15.30
2023-04-21T16:08:58.324Z,15.30
2023-04-21T16:11:26.651Z,15.20
2023-04-21T16:13:53.951Z,15.00
2023-04-21T16:16:20.978Z,15.00
2023-04-21T16:18:47.993Z,14.70
2023-04-21T16:21:15.030Z,14.70
2023-04-21T16:23:42.022Z,14.60
2023-04-21T16:26:09.275Z,14.40
2023-04-21T16:28:36.305Z,14.30
2023-04-21T16:31:04.229Z,14.20
2023-04-21T16:33:31.327Z,14.10
2023-04-21T16:35:58.265Z,14.00
2023-04-21T16:38:25.544Z,13.90
2023-04-21T16:40:52.673Z,13.80
2023-04-21T16:43:19.665Z,13.80
2023-04-21T16:45:46.572Z,13.70
2023-04-21T16:48:13.880Z,13.50
2023-04-21T16:50:41.990Z,13.50
2023-04-21T16:53:09.099Z,13.50
2023-04-21T16:55:36.066Z,13.40
2023-04-21T16:58:03.108Z,13.30
2023-04-21T17:00:30.490Z,13.10
2023-04-21T17:02:57.757Z,12.90
2023-04-21T17:05:25.004Z,12.80
2023-04-21T17:07:51.957Z,12.80
2023-04-21T17:10:19.022Z,12.80
2023-04-21T17:12:46.424Z,12.70
2023-04-21T17:15:13.515Z,12.60
2023-04-21T17:17:45.104Z,12.60
2023-04-21T17:20:13.654Z,12.50
2023-04-21T17:22:41.879Z,12.40
2023-04-21T17:25:09.935Z,12.40
2023-04-21T17:27:38.784Z,12.40
2023-04-21T17:30:06.585Z,12.30
2023-04-21T17:32:34.478Z,12.20
2023-04-21T17:35:02.144Z,12.10
2023-04-21T17:37:30.450Z,11.90
2023-04-21T17:39:59.271Z,12.00
2023-04-21T17:42:29.276Z,12.00
2023-04-21T17:44:56.155Z,12.00
2023-04-21T17:47:23.268Z,12.00
2023-04-21T17:49:50.280Z,12.00
2023-04-21T17:52:17.430Z,11.80
2023-04-21T17:54:44.408Z,11.80
2023-04-21T17:57:11.999Z,11.80
2023-04-21T17:59:39.626Z,11.70
2023-04-21T18:02:07.517Z,11.60
2023-04-21T18:04:34.920Z,11.60
2023-04-21T18:07:03.044Z,11.60
2023-04-21T18:09:30.167Z,11.60
2023-04-21T18:11:58.373Z,11.40
2023-04-21T18:14:25.966Z,11.30
2023-04-21T18:16:53.099Z,11.20
2023-04-21T18:19:20.263Z,11.10
2023-04-21T18:21:47.387Z,11.10
2023-04-21T18:24:14.830Z,11.00
2023-04-21T18:26:41.852Z,10.90
2023-04-21T18:29:08.759Z,10.90
2023-04-21T18:31:36.208Z,10.80
2023-04-21T18:34:03.350Z,10.70
2023-04-21T18:36:33.034Z,10.70
2023-04-21T18:39:00.831Z,10.70
2023-04-21T18:41:28.059Z,10.60
2023-04-21T18:43:55.066Z,10.60
2023-04-21T18:46:22.313Z,10.60
2023-04-21T18:48:49.407Z,10.50
2023-04-21T18:51:16.783Z,10.50
2023-04-21T18:53:43.805Z,10.30
2023-04-21T18:56:10.793Z,10.30
2023-04-21T18:58:39.174Z,10.30
2023-04-21T19:01:06.162Z,10.30
2023-04-21T19:03:33.982Z,10.30
2023-04-21T19:06:01.135Z,10.30
2023-04-21T19:08:41.362Z,10.20
2023-04-21T19:11:11.205Z,10.20
2023-04-21T19:13:38.572Z,10.10
2023-04-21T19:16:05.748Z,10.10
2023-04-21T19:18:32.754Z,10.00
2023-04-21T19:20:59.679Z,9.90
2023-04-21T19:23:26.633Z,9.90
2023-04-21T19:25:54.551Z,9.80
2023-04-21T19:28:21.712Z,9.70
2023-04-21T19:30:48.946Z,9.70
2023-04-21T19:33:16.334Z,9.70
2023-04-21T19:35:43.533Z,9.70
2023-04-21T19:38:10.737Z,9.70
2023-04-21T19:40:37.693Z,9.60
2023-04-21T19:43:04.979Z,9.70
2023-04-21T19:45:31.995Z,9.60
2023-04-21T19:47:59.010Z,9.60
2023-04-21T19:50:26.037Z,9.50
2023-04-21T19:52:52.948Z,9.60
2023-04-21T19:55:19.800Z,9.50
2023-04-21T19:57:46.710Z,9.50
2023-04-21T20:00:14.392Z,9.50
2023-04-21T20:02:42.337Z,9.40
2023-04-21T20:05:10.187Z,9.40
2023-04-21T20:07:37.921Z,9.40
2023-04-21T20:10:06.818Z,9.40
2023-04-21T20:12:34.249Z,9.40
2023-04-21T20:15:01.810Z,9.40
2023-04-21T20:17:29.440Z,9.30
2023-04-21T20:19:56.442Z,9.30
2023-04-21T20:22:23.426Z,9.30
2023-04-21T20:24:52.104Z,9.20
2023-04-21T20:27:19.208Z,9.20
2023-04-21T20:29:46.921Z,9.20
2023-04-21T20:32:14.010Z,9.20
2023-04-21T20:34:41.025Z,9.10
2023-04-21T20:37:07.998Z,9.10
2023-04-21T20:39:34.907Z,9.10
2023-04-21T20:42:12.567Z,9.00
2023-04-21T20:44:42.448Z,9.00
2023-04-21T20:47:10.791Z,8.90
2023-04-21T20:49:38.522Z,8.90
2023-04-21T20:52:05.811Z,8.90
2023-04-21T20:54:34.758Z,8.90
2023-04-21T20:57:02.346Z,8.80
2023-04-21T20:59:29.360Z,8.70
2023-04-21T21:01:56.415Z,8.70
2023-04-21T21:04:23.664Z,8.70
2023-04-21T21:06:50.800Z,8.70
2023-04-21T21:09:18.994Z,8.60
2023-04-21T21:11:46.515Z,8.60
2023-04-21T21:14:13.793Z,8.60
2023-04-21T21:16:40.969Z,8.60
2023-04-21T21:19:07.895Z,8.60
2023-04-21T21:21:34.840Z,8.60
2023-04-21T21:24:01.839Z,8.60
2023-04-21T21:26:29.460Z,8.60
2023-04-21T21:28:57.162Z,8.60
2023-04-21T21:31:25.604Z,8.50
2023-04-21T21:33:52.802Z,8.40
2023-04-21T21:36:19.861Z,8.30
2023-04-21T21:38:46.772Z,8.20
2023-04-21T21:41:14.163Z,8.20
2023-04-21T21:43:41.307Z,8.10
2023-04-21T21:46:09.153Z,8.10
2023-04-21T21:48:36.253Z,8.10
2023-04-21T21:51:04.403Z,8.00
2023-04-21T21:53:32.519Z,8.00
2023-04-21T21:56:00.214Z,7.90
2023-04-21T21:58:27.648Z,7.90
2023-04-21T22:00:55.228Z,7.90
2023-04-21T22:03:22.542Z,7.90
2023-04-21T22:05:50.984Z,7.90
2023-04-21T22:08:17.957Z,7.90
2023-04-21T22:10:45.457Z,7.90
2023-04-21T22:13:12.442Z,7.90
2023-04-21T22:15:39.440Z,7.90
2023-04-21T22:18:08.048Z,7.80
2023-04-21T22:20:35.667Z,7.70
2023-04-21T22:23:03.256Z,7.60
2023-04-21T22:25:30.690Z,7.60
2023-04-21T22:27:58.165Z,7.50
2023-04-21T22:30:25.794Z,7.50
2023-04-21T22:32:52.968Z,7.50
2023-04-21T22:35:20.071Z,7.70
2023-04-21T22:37:47.039Z,7.60
2023-04-21T22:40:14.050Z,7.30
2023-04-21T22:42:41.065Z,7.10
2023-04-21T22:45:08.549Z,7.10
2023-04-21T22:47:35.687Z,7.40
2023-04-21T22:50:04.402Z,7.50
2023-04-21T22:52:31.477Z,7.50
2023-04-21T22:54:58.458Z,7.50
2023-04-21T22:57:25.714Z,7.60
2023-04-21T22:59:52.867Z,7.70
2023-04-21T23:02:19.964Z,7.70
2023-04-21T23:04:46.917Z,7.80
2023-04-21T23:07:14.040Z,7.80
2023-04-21T23:09:41.215Z,7.80
2023-04-21T23:12:08.355Z,7.80
2023-04-21T23:14:35.520Z,7.70
2023-04-21T23:17:02.640Z,7.70
2023-04-21T23:19:29.652Z,7.70
2023-04-21T23:21:56.702Z,7.70
2023-04-21T23:24:23.580Z,7.80
2023-04-21T23:26:50.731Z,7.80
2023-04-21T23:29:18.511Z,7.80
2023-04-21T23:31:45.445Z,7.80
2023-04-21T23:34:12.452Z,7.80
2023-04-21T23:36:39.382Z,7.80
2023-04-21T23:39:06.304Z,7.80
2023-04-21T23:41:33.412Z,7.80
2023-04-21T23:44:00.569Z,7.80
2023-04-21T23:46:27.605Z,7.80
2023-04-21T23:48:54.967Z,7.80
2023-04-21T23:51:22.382Z,7.80
2023-04-21T23:53:49.368Z,7.80
2023-04-21T23:56:16.405Z,7.80
2023-04-21T23:58:43.346Z,7.70
